Time,TemperatureF,DewpointF,PressureIn,WindDirection,WindDirectionDegrees,WindSpeedMPH,WindSpeedGustMPH,Humidity,HourlyPrecipIn,Conditions,Clouds,dailyrainin,SoftwareType,DateUTC
2013-07-05 00:02:00,69.0,39.0,-100.00,NE,43,4.0,8.0,34,0.00,,,0.00,,2013-07-05 06:02:00,
2013-07-05 00:13:00,69.0,39.0,-100.00,NE,43,4.0,8.0,34,0.00,,,0.00,,2013-07-05 06:13:00,
2013-07-05 00:43:00,69.0,39.0,-100.00,NE,44,8.0,17.0,34,0.00,,,0.00,,2013-07-05 06:43:00,
2013-07-05 00:53:00,69.0,39.0,-100.00,NE,44,8.0,17.0,34,0.00,,,0.00,,2013-07-05 06:53:00,
2013-07-05 01:02:00,69.0,39.0,-100.00,NE,44,8.0,17.0,34,0.00,,,0.00,,2013-07-05 07:02:00,
2013-07-05 01:12:00,69.0,39.0,-100.00,NE,44,8.0,17.0,34,0.00,,,0.00,,2013-07-05 07:12:00,
2013-07-05 01:53:00,69.0,38.0,-100.00,NE,40,11.0,19.0,33,0.00,,,0.00,,2013-07-05 07:53:00,
2013-07-05 02:02:00,69.0,38.0,-100.00,NE,40,11.0,19.0,33,0.00,,,0.00,,2013-07-05 08:02:00,
2013-07-05 02:12:00,69.0,38.0,-100.00,NE,40,11.0,19.0,33,0.00,,,0.00,,2013-07-05 08:12:00,
2013-07-05 02:43:00,65.0,36.0,-100.00,NNE,32,11.0,17.0,34,0.00,,,0.00,,2013-07-05 08:43:00,
2013-07-05 02:56:00,65.0,36.0,-100.00,NNE,32,11.0,17.0,34,0.00,,,0.00,,2013-07-05 08:56:00,
2013-07-05 03:04:00,65.0,36.0,-100.00,NNE,32,11.0,17.0,34,0.00,,,0.00,,2013-07-05 09:04:00,
2013-07-05 03:13:00,65.0,36.0,-100.00,NNE,32,11.0,17.0,34,0.00,,,0.00,,2013-07-05 09:13:00,
2013-07-05 03:45:00,65.0,35.0,-100.00,NE,38,8.0,13.0,33,0.00,,,0.00,,2013-07-05 09:45:00,
2013-07-05 03:55:00,65.0,35.0,-100.00,NE,38,8.0,13.0,33,0.00,,,0.00,,2013-07-05 09:55:00,
2013-07-05 04:04:00,65.0,35.0,-100.00,NE,38,8.0,13.0,33,0.00,,,0.00,,2013-07-05 10:04:00,
2013-07-05 04:13:00,65.0,35.0,-100.00,NE,38,8.0,13.0,33,0.00,,,0.00,,2013-07-05 10:13:00,
2013-07-05 04:46:00,61.0,36.0,-100.00,NNE,25,7.0,11.0,40,-99.99,,,0.00,,2013-07-05 10:46:00,
2013-07-05 04:57:00,61.0,36.0,-100.00,NNE,25,7.0,11.0,40,-99.99,,,0.00,,2013-07-05 10:57:00,
2013-07-05 05:04:00,61.0,36.0,-100.00,NNE,25,7.0,11.0,40,-99.99,,,0.00,,2013-07-05 11:04:00,
2013-07-05 05:14:00,61.0,36.0,-100.00,NNE,25,7.0,11.0,40,-99.99,,,0.00,,2013-07-05 11:14:00,
2013-07-05 05:45:00,57.0,37.0,-100.00,North,2,7.0,10.0,47,0.00,,,0.00,,2013-07-05 11:45:00,
2013-07-05 05:59:00,57.0,37.0,-100.00,North,2,7.0,10.0,47,0.00,,,0.00,,2013-07-05 11:59:00,
2013-07-05 06:12:00,57.0,37.0,-100.00,North,2,7.0,10.0,47,0.00,,,0.00,,2013-07-05 12:12:00,
2013-07-05 06:59:00,55.0,36.0,-100.00,NNW,333,5.0,7.0,49,0.00,,,0.00,,2013-07-05 12:59:00,
2013-07-05 07:12:00,55.0,36.0,-100.00,NNW,333,5.0,7.0,49,0.00,,,0.00,,2013-07-05 13:12:00,
2013-07-05 07:57:00,58.0,39.0,-100.00,North,3,2.0,4.0,50,0.00,,,0.00,,2013-07-05 13:57:00,
2013-07-05 08:04:00,58.0,39.0,-100.00,North,3,2.0,4.0,50,0.00,,,0.00,,2013-07-05 14:04:00,
2013-07-05 08:12:00,58.0,39.0,-100.00,North,3,2.0,4.0,50,0.00,,,0.00,,2013-07-05 14:12:00,
2013-07-05 08:45:00,62.0,41.0,-100.00,SSE,153,2.0,4.0,45,0.00,,,0.00,,2013-07-05 14:45:00,
2013-07-05 08:56:00,62.0,41.0,-100.00,SSE,153,2.0,4.0,45,0.00,,,0.00,,2013-07-05 14:56:00,
2013-07-05 09:13:00,62.0,41.0,-100.00,SSE,153,2.0,4.0,45,0.00,,,0.00,,2013-07-05 15:13:00,
2013-07-05 09:43:00,66.0,40.0,-100.00,NE,34,4.0,7.0,39,0.00,,,0.00,,2013-07-05 15:43:00,
2013-07-05 09:53:00,66.0,40.0,-100.00,NE,34,4.0,7.0,39,0.00,,,0.00,,2013-07-05 15:53:00,
2013-07-05 10:01:00,66.0,40.0,-100.00,NE,34,4.0,7.0,39,0.00,,,0.00,,2013-07-05 16:01:00,
2013-07-05 10:11:00,66.0,40.0,-100.00,NE,34,4.0,7.0,39,0.00,,,0.00,,2013-07-05 16:11:00,
2013-07-05 10:44:00,69.0,38.0,-100.00,NNE,27,6.0,9.0,32,0.00,,,0.00,,2013-07-05 16:44:00,
2013-07-05 10:53:00,69.0,38.0,-100.00,NNE,27,6.0,9.0,32,0.00,,,0.00,,2013-07-05 16:53:00,
2013-07-05 11:01:00,69.0,38.0,-100.00,NNE,27,6.0,9.0,32,0.00,,,0.00,,2013-07-05 17:01:00,
2013-07-05 11:12:00,69.0,38.0,-100.00,NNE,27,6.0,9.0,32,0.00,,,0.00,,2013-07-05 17:12:00,
2013-07-05 11:43:00,72.0,40.0,-100.00,NE,42,5.0,10.0,31,0.00,,,0.00,,2013-07-05 17:43:00,
2013-07-05 11:53:00,72.0,40.0,-100.00,NE,42,5.0,10.0,31,0.00,,,0.00,,2013-07-05 17:53:00,
2013-07-05 12:01:00,72.0,40.0,-100.00,NE,42,5.0,10.0,31,0.00,,,0.00,,2013-07-05 18:01:00,
2013-07-05 12:11:00,72.0,40.0,-100.00,NE,42,5.0,10.0,31,0.00,,,0.00,,2013-07-05 18:11:00,
2013-07-05 12:43:00,74.0,38.0,-100.00,NNE,14,5.0,9.0,28,0.00,,,0.00,,2013-07-05 18:43:00,
2013-07-05 12:53:00,74.0,38.0,-100.00,NNE,14,5.0,9.0,28,0.00,,,0.00,,2013-07-05 18:53:00,
2013-07-05 13:01:00,74.0,38.0,-100.00,NNE,14,5.0,9.0,28,0.00,,,0.00,,2013-07-05 19:01:00,
2013-07-05 13:12:00,74.0,38.0,-100.00,NNE,14,5.0,9.0,28,0.00,,,0.00,,2013-07-05 19:12:00,
2013-07-05 13:42:00,76.0,39.0,-100.00,North,5,6.0,12.0,26,0.00,,,0.00,,2013-07-05 19:42:00,
2013-07-05 13:53:00,76.0,39.0,-100.00,North,5,6.0,12.0,26,0.00,,,0.00,,2013-07-05 19:53:00,
2013-07-05 14:01:00,76.0,39.0,-100.00,North,5,6.0,12.0,26,0.00,,,0.00,,2013-07-05 20:01:00,
2013-07-05 14:11:00,76.0,39.0,-100.00,North,5,6.0,12.0,26,0.00,,,0.00,,2013-07-05 20:11:00,
2013-07-05 14:43:00,79.0,39.0,-100.00,NNE,27,8.0,14.0,24,0.00,,,0.00,,2013-07-05 20:43:00,
2013-07-05 14:53:00,79.0,39.0,-100.00,NNE,27,8.0,14.0,24,0.00,,,0.00,,2013-07-05 20:53:00,
2013-07-05 15:01:00,79.0,39.0,-100.00,NNE,27,8.0,14.0,24,0.00,,,0.00,,2013-07-05 21:01:00,
2013-07-05 15:11:00,79.0,39.0,-100.00,NNE,27,8.0,14.0,24,0.00,,,0.00,,2013-07-05 21:11:00,
2013-07-05 15:42:00,81.0,40.0,-100.00,NNE,21,10.0,16.0,24,0.00,,,0.00,,2013-07-05 21:42:00,
2013-07-05 15:53:00,81.0,40.0,-100.00,NNE,21,10.0,16.0,24,0.00,,,0.00,,2013-07-05 21:53:00,
2013-07-05 16:01:00,81.0,40.0,-100.00,NNE,21,10.0,16.0,24,0.00,,,0.00,,2013-07-05 22:01:00,
2013-07-05 16:11:00,81.0,40.0,-100.00,NNE,21,10.0,16.0,24,0.00,,,0.00,,2013-07-05 22:11:00,
2013-07-05 16:43:00,78.0,40.0,-100.00,NNE,16,7.0,13.0,26,0.00,,,0.00,,2013-07-05 22:43:00,
2013-07-05 16:53:00,78.0,40.0,-100.00,NNE,16,7.0,13.0,26,0.00,,,0.00,,2013-07-05 22:53:00,
2013-07-05 17:02:00,78.0,40.0,-100.00,NNE,16,7.0,13.0,26,0.00,,,0.00,,2013-07-05 23:02:00,
2013-07-05 17:11:00,78.0,40.0,-100.00,NNE,16,7.0,13.0,26,0.00,,,0.00,,2013-07-05 23:11:00,
2013-07-05 17:43:00,72.0,46.0,-100.00,South,182,5.0,9.0,39,0.00,,,0.00,,2013-07-05 23:43:00,
2013-07-05 17:53:00,72.0,46.0,-100.00,South,182,5.0,9.0,39,0.00,,,0.00,,2013-07-05 23:53:00,
2013-07-05 18:01:00,72.0,46.0,-100.00,South,182,5.0,9.0,39,0.00,,,0.00,,2013-07-06 00:01:00,
2013-07-05 18:11:00,72.0,46.0,-100.00,South,182,5.0,9.0,39,0.00,,,0.00,,2013-07-06 00:11:00,
2013-07-05 18:53:00,69.0,48.0,-100.00,SW,216,8.0,15.0,46,0.00,,,0.00,,2013-07-06 00:53:00,
2013-07-05 19:02:00,69.0,48.0,-100.00,SW,216,8.0,15.0,46,0.00,,,0.00,,2013-07-06 01:02:00,
2013-07-05 19:12:00,69.0,48.0,-100.00,SW,216,8.0,15.0,46,0.00,,,0.00,,2013-07-06 01:12:00,
2013-07-05 19:42:00,71.0,48.0,-100.00,NNE,30,4.0,7.0,44,0.00,,,0.00,,2013-07-06 01:42:00,
2013-07-05 19:53:00,71.0,48.0,-100.00,NNE,30,4.0,7.0,44,0.00,,,0.00,,2013-07-06 01:53:00,
2013-07-05 20:02:00,71.0,48.0,-100.00,NNE,30,4.0,7.0,44,0.00,,,0.00,,2013-07-06 02:02:00,
2013-07-05 20:11:00,71.0,48.0,-100.00,NNE,30,4.0,7.0,44,0.00,,,0.00,,2013-07-06 02:11:00,
2013-07-05 20:43:00,69.0,48.0,-100.00,NNW,328,3.0,6.0,47,0.00,,,0.00,,2013-07-06 02:43:00,
2013-07-05 20:53:00,69.0,48.0,-100.00,NNW,328,3.0,6.0,47,0.00,,,0.00,,2013-07-06 02:53:00,
2013-07-05 21:02:00,69.0,48.0,-100.00,NNW,328,3.0,6.0,47,0.00,,,0.00,,2013-07-06 03:02:00,
2013-07-05 21:11:00,69.0,48.0,-100.00,NNW,328,3.0,6.0,47,0.00,,,0.00,,2013-07-06 03:11:00,
2013-07-05 21:43:00,63.0,47.0,-100.00,West,268,4.0,5.0,57,0.00,,,0.00,,2013-07-06 03:43:00,
2013-07-05 21:53:00,63.0,47.0,-100.00,West,268,4.0,5.0,57,0.00,,,0.00,,2013-07-06 03:53:00,
2013-07-05 22:01:00,63.0,47.0,-100.00,West,268,4.0,5.0,57,0.00,,,0.00,,2013-07-06 04:01:00,
2013-07-05 22:12:00,63.0,47.0,-100.00,West,268,4.0,5.0,57,0.00,,,0.00,,2013-07-06 04:12:00,
2013-07-05 22:43:00,57.0,50.0,-100.00,SSW,198,6.0,9.0,76,0.00,,,0.00,,2013-07-06 04:43:00,
2013-07-05 22:53:00,57.0,50.0,-100.00,SSW,198,6.0,9.0,76,0.00,,,0.00,,2013-07-06 04:53:00,
2013-07-05 23:02:00,57.0,50.0,-100.00,SSW,198,6.0,9.0,76,0.00,,,0.00,,2013-07-06 05:02:00,
2013-07-05 23:12:00,57.0,50.0,-100.00,SSW,198,6.0,9.0,76,0.00,,,0.00,,2013-07-06 05:12:00,
2013-07-05 23:42:00,55.0,49.0,-100.00,NE,48,3.0,5.0,78,0.00,,,0.00,,2013-07-06 05:42:00,
2013-07-05 23:53:00,55.0,49.0,-100.00,NE,48,3.0,5.0,78,0.00,,,0.00,,2013-07-06 05:53:00,